Decoded Metar for KOEB (COLDWATER in MI, USA) (IATA:OEB) | Meteo·Mobile Aviation Weather
aviador You're here:

KOEB Decoded Metar

COLDWATER in MI, USA
Report Time2019-04-18 20:56:00
UTC Time2019-04-18 21:16:29
Flight Rules ifr IFR
Wind300° at 12 kt
W.Decomp.*RWY 34: 9.8 kt HW 6.9 kt LCW
RWY 25: 6.9 kt HW 9.8 kt RCW
RWY 22: 1.0 kt HW 12.0 kt RCW
Visibility8047 m
Phenomena:Drizzle
Clouds:Overcast 008 Hf
Ceiling800 ft
Temp12°C (ISA -1)
Dew Point12°C (100% RH)
AAT8.3°C
QNH1002 hPa
Density Alt1,394 ft
Elevation958 ft
Report Wrong Elevation
Raw Report
KOEB 182056Z AUTO 30012KT 5SM DZ OVC008 12/12 A2960 RMK AO2
T01230122=

Extra information for KOEB:More info

Metar Taf Metar & Taf Last 4 Metars F.Rules Stats Wind Profile Meteogram Temp Stats Airport Information Weather charts Add Link Nearby VenuesMetar ALERT Operation Metar Decoded Social comments

AIRNAV info for KOEB